aviador You're here:

CYPO Decoded Metar

in
Report Time2017-12-17 05:00:00
UTC Time2017-12-17 06:00:52
Flight Rules vfr VFR
Wind230° at 08 kt
W.Decomp.*RWY 29: 4.0 kt HW 6.9 kt LCW
W.Rank230° ranks 18
Current wind is above 230° avg. (7.3)
Visibility9999 m
Phenomena:N/A
Clouds:N/A
Expected CloudBase > 1,600 ft AGL from Temp-Dew spread
CeilingNone
Temp-28°C
Dew Point-32°C (69% RH)
AAT-34.7°C
QNH1020 hPa
Raw Report
METAR CYPO 170500Z AUTO 23008KT 9SM CLR M28/M32 A3013 RMK SLP213=

Extra information for CYPO:More info

Social comments